Oscoda, Michigan
Current Conditions -  °F | °C
As of 3:54 AM on Sunday 26 Oct 2014 (Local Time) from KOSC Reporting Station
Clear Clear  
Wind Chill:   Ceiling: Unl
Heat Index:   Visibility: 10mi
Dew Point:   Wind: 9mph
Humidity: 61%   Direction: 310°NW
Pressure: 29.77"   Gusts: 18mph
Location:  44.42°N, 83.33°W
Report Text: KOSC 260754Z AUTO 31008G16KT 10SM CLR 07/00 A2977 RMK AO2 T00750005
Loading
Personal Weather Stations






























Interactive Weather Map New forecast layout! Learn more

10-Day Weather Forecast

Advertisements
Track Severe Weather on mobile